Time;durP1;ratioP1;P1;durP2;ratioP2;P2;SDS_P1;SDS_P2;PMS_P1;PMS_P2;Temp;Humidity;BMP_temperature;BMP_pressure;BME280_temperature;BME280_humidity;BME280_pressure;Samples;Min_cycle;Max_cycle;Signal;HPM_P1;HPM_P2
2024/02/25 00:00:33;;;;;;;;;;;5.50;99.90;;;;;;2063500;28;20352;-69
2024/02/25 00:01:34;;;;;;;;;;;5.50;99.90;;;;;;2060010;28;19909;-70
2024/02/25 00:02:34;;;;;;;;;;;5.50;99.90;;;;;;2054557;28;19914;-70
2024/02/25 00:03:35;;;;;;;;;;;5.50;99.90;;;;;;2059602;28;19913;-70
2024/02/25 00:04:35;;;;;;;;;;;5.50;99.90;;;;;;2062193;28;20344;-70
2024/02/25 00:05:37;;;;;;;;;;;5.60;99.90;;;;;;2063973;28;19914;-70
2024/02/25 00:06:40;;;;;;;;;;;5.60;99.90;;;;;;2057427;28;19971;-70
2024/02/25 00:07:40;;;;;;;;;;;5.60;99.90;;;;;;2062151;28;19909;-70
2024/02/25 00:08:41;;;;;;;;;;;5.50;99.90;;;;;;2061935;28;19956;-69
2024/02/25 00:09:41;;;;;;;;;;;5.60;99.90;;;;;;2060394;28;20157;-70
2024/02/25 00:10:42;;;;;;;;;;;5.60;99.90;;;;;;2060147;28;19910;-71
2024/02/25 00:11:42;;;;;;;;;;;5.60;99.90;;;;;;2063193;28;20252;-72
2024/02/25 00:12:43;;;;;;;;;;;5.60;99.90;;;;;;2059434;28;19920;-71
2024/02/25 00:13:43;;;;;;;;;;;5.60;99.90;;;;;;2054795;28;20055;-69
2024/02/25 00:14:44;;;;;;;;;;;5.60;99.90;;;;;;2058872;28;20005;-70
2024/02/25 00:15:44;;;;;;;;;;;5.50;99.90;;;;;;2059673;28;20280;-70
2024/02/25 00:16:45;;;;;;;;;;;5.50;99.90;;;;;;2059592;28;19913;-71
2024/02/25 00:17:45;;;;;;;;;;;5.50;99.90;;;;;;2060233;28;20435;-71
2024/02/25 00:18:46;;;;;;;;;;;5.40;99.90;;;;;;2058894;28;19956;-71
2024/02/25 00:19:46;;;;;;;;;;;5.40;99.90;;;;;;2059318;28;19925;-74
2024/02/25 00:20:47;;;;;;;;;;;5.40;99.90;;;;;;2054082;28;19910;-71
2024/02/25 00:21:47;;;;;;;;;;;5.40;99.90;;;;;;2058056;28;20413;-71
2024/02/25 00:22:48;;;;;;;;;;;5.30;99.90;;;;;;2057758;28;20009;-69
2024/02/25 00:23:48;;;;;;;;;;;5.30;99.90;;;;;;2060034;28;19923;-70
2024/02/25 00:24:49;;;;;;;;;;;5.30;99.90;;;;;;2056199;28;19917;-72
2024/02/25 00:25:49;;;;;;;;;;;5.30;99.90;;;;;;2060399;28;19913;-74
2024/02/25 00:26:50;;;;;;;;;;;5.30;99.90;;;;;;2058822;28;19913;-70
2024/02/25 00:27:50;;;;;;;;;;;5.30;99.90;;;;;;2043494;28;20251;-72
2024/02/25 00:28:51;;;;;;;;;;;5.30;99.90;;;;;;2050930;28;19936;-72
2024/02/25 00:29:51;;;;;;;;;;;5.30;99.90;;;;;;2050999;28;19917;-71
2024/02/25 00:30:52;;;;;;;;;;;5.30;99.90;;;;;;2049213;28;19953;-70
2024/02/25 00:31:52;;;;;;;;;;;5.30;99.90;;;;;;2049163;28;19941;-71
2024/02/25 00:32:53;;;;;;;;;;;5.30;99.90;;;;;;2065195;28;20387;-71
2024/02/25 00:33:53;;;;;;;;;;;5.30;99.90;;;;;;2066917;28;20136;-70
2024/02/25 00:34:54;;;;;;;;;;;5.40;99.90;;;;;;2059399;28;20384;-73
2024/02/25 00:35:54;;;;;;;;;;;5.30;99.90;;;;;;2059648;28;19963;-72
2024/02/25 00:36:55;;;;;;;;;;;5.30;99.90;;;;;;2057603;28;20469;-72
2024/02/25 00:37:55;;;;;;;;;;;5.30;99.90;;;;;;2058943;28;19913;-72
2024/02/25 00:38:56;;;;;;;;;;;5.30;99.90;;;;;;2056774;28;19913;-72
2024/02/25 00:39:56;;;;;;;;;;;5.30;99.90;;;;;;2058832;28;20008;-79
2024/02/25 00:40:57;;;;;;;;;;;5.30;99.90;;;;;;2057262;28;20428;-79
2024/02/25 00:42:01;;;;;;;;;;;5.30;99.90;;;;;;2060171;28;19995;-79
2024/02/25 00:43:02;;;;;;;;;;;5.30;99.90;;;;;;2058458;28;19917;-79
2024/02/25 00:44:02;;;;;;;;;;;5.30;99.90;;;;;;2060142;28;19914;-79
2024/02/25 00:45:03;;;;;;;;;;;5.30;99.90;;;;;;2059819;28;19917;-79
2024/02/25 00:46:03;;;;;;;;;;;5.30;99.90;;;;;;2059946;28;19949;-79
2024/02/25 00:47:04;;;;;;;;;;;5.30;99.90;;;;;;2059438;28;20007;-79
2024/02/25 00:48:05;;;;;;;;;;;5.30;99.90;;;;;;2059642;28;19919;-79
2024/02/25 00:49:05;;;;;;;;;;;5.30;99.90;;;;;;2059610;28;20350;-78
2024/02/25 00:50:06;;;;;;;;;;;5.30;99.90;;;;;;2059372;28;20031;-79
2024/02/25 00:51:06;;;;;;;;;;;5.30;99.90;;;;;;2059342;28;20785;-79
2024/02/25 00:52:07;;;;;;;;;;;5.20;99.90;;;;;;2059631;28;19963;-78
2024/02/25 00:53:07;;;;;;;;;;;5.20;99.90;;;;;;2058743;28;20340;-79
2024/02/25 00:54:08;;;;;;;;;;;5.20;99.90;;;;;;2060494;28;19913;-80
2024/02/25 00:55:08;;;;;;;;;;;5.20;99.90;;;;;;2058632;28;19989;-80
2024/02/25 00:56:09;;;;;;;;;;;5.20;99.90;;;;;;2060445;28;20303;-80
2024/02/25 00:57:10;;;;;;;;;;;5.20;99.90;;;;;;2060173;28;20347;-79
2024/02/25 00:58:10;;;;;;;;;;;5.20;99.90;;;;;;2060092;28;20264;-79
2024/02/25 00:59:11;;;;;;;;;;;5.20;99.90;;;;;;2057378;28;20395;-79
2024/02/25 01:00:11;;;;;;;;;;;5.20;99.90;;;;;;2059794;28;19910;-79
2024/02/25 01:01:15;;;;;;;;;;;5.20;99.90;;;;;;2059009;28;19909;-78
2024/02/25 01:02:15;;;;;;;;;;;5.20;99.90;;;;;;2058045;28;19920;-78
2024/02/25 01:03:16;;;;;;;;;;;5.20;99.90;;;;;;2060079;28;19913;-77
2024/02/25 01:04:18;;;;;;;;;;;5.20;99.90;;;;;;2059904;28;19917;-78
2024/02/25 01:05:18;;;;;;;;;;;5.20;99.90;;;;;;2058897;28;19913;-79
2024/02/25 01:06:19;;;;;;;;;;;5.20;99.90;;;;;;2057940;28;19910;-78
2024/02/25 01:07:19;;;;;;;;;;;5.20;99.90;;;;;;2056740;28;19969;-79
2024/02/25 01:08:20;;;;;;;;;;;5.30;99.90;;;;;;2050309;28;19997;-78
2024/02/25 01:09:20;;;;;;;;;;;5.30;99.90;;;;;;2059321;28;20574;-79
2024/02/25 01:10:21;;;;;;;;;;;5.30;99.90;;;;;;2059987;28;19946;-79
2024/02/25 01:11:21;;;;;;;;;;;5.30;99.90;;;;;;2058975;28;19918;-79
2024/02/25 01:12:22;;;;;;;;;;;5.30;99.90;;;;;;2060045;28;20347;-80
2024/02/25 01:13:23;;;;;;;;;;;5.30;99.90;;;;;;2059742;28;19910;-79
2024/02/25 01:14:24;;;;;;;;;;;5.30;99.90;;;;;;2060552;28;19920;-79
2024/02/25 01:15:24;;;;;;;;;;;5.30;99.90;;;;;;2058872;28;19910;-80
2024/02/25 01:16:25;;;;;;;;;;;5.30;99.90;;;;;;2060678;28;19914;-77
2024/02/25 01:17:25;;;;;;;;;;;5.30;99.90;;;;;;2060020;28;19918;-79
2024/02/25 01:18:26;;;;;;;;;;;5.30;99.90;;;;;;2059749;28;20495;-77
2024/02/25 01:19:26;;;;;;;;;;;5.20;99.90;;;;;;2059579;28;19909;-79
2024/02/25 01:20:27;;;;;;;;;;;5.20;99.90;;;;;;2060609;28;20292;-79
2024/02/25 01:21:27;;;;;;;;;;;5.20;99.90;;;;;;2060645;28;19916;-78
2024/02/25 01:22:28;;;;;;;;;;;5.20;99.90;;;;;;2060084;28;19909;-79
2024/02/25 01:23:28;;;;;;;;;;;5.20;99.90;;;;;;2058896;28;19932;-79
2024/02/25 01:24:29;;;;;;;;;;;5.20;99.90;;;;;;2055971;28;19957;-79
2024/02/25 01:25:29;;;;;;;;;;;5.20;99.90;;;;;;2056267;28;19933;-78
2024/02/25 01:26:30;;;;;;;;;;;5.10;99.90;;;;;;2058127;28;19914;-78
2024/02/25 01:27:30;;;;;;;;;;;5.10;99.90;;;;;;2059040;28;19910;-79
2024/02/25 01:28:31;;;;;;;;;;;5.10;99.90;;;;;;2057514;28;19940;-79
2024/02/25 01:29:31;;;;;;;;;;;5.20;99.90;;;;;;2055920;28;20007;-79
2024/02/25 01:30:32;;;;;;;;;;;5.10;99.90;;;;;;2059799;28;20394;-79
2024/02/25 01:31:32;;;;;;;;;;;5.20;99.90;;;;;;2057648;28;19918;-80
2024/02/25 01:32:33;;;;;;;;;;;5.20;99.90;;;;;;2056932;28;19914;-80
2024/02/25 01:33:33;;;;;;;;;;;5.20;99.90;;;;;;2061180;28;20143;-79
2024/02/25 01:34:34;;;;;;;;;;;5.20;99.90;;;;;;2060537;28;19993;-80
2024/02/25 01:35:34;;;;;;;;;;;5.30;99.90;;;;;;2060084;28;19910;-80
2024/02/25 01:36:35;;;;;;;;;;;5.30;99.90;;;;;;2055802;28;20407;-80
2024/02/25 01:37:35;;;;;;;;;;;5.30;99.90;;;;;;2060877;28;19949;-79
2024/02/25 01:38:36;;;;;;;;;;;5.30;99.90;;;;;;2060736;28;19947;-79
2024/02/25 01:39:37;;;;;;;;;;;5.30;99.90;;;;;;2060294;28;19922;-79
2024/02/25 01:40:38;;;;;;;;;;;5.30;99.90;;;;;;2059099;28;20410;-79
2024/02/25 01:41:38;;;;;;;;;;;5.30;99.90;;;;;;2064227;28;19906;-79
2024/02/25 01:42:39;;;;;;;;;;;5.30;99.90;;;;;;2061435;28;19996;-80
2024/02/25 01:43:40;;;;;;;;;;;5.30;99.90;;;;;;2060545;28;19991;-80
2024/02/25 01:44:55;;;;;;;;;;;5.30;99.90;;;;;;2059617;28;20428;-79
2024/02/25 01:45:56;;;;;;;;;;;5.20;99.90;;;;;;2056245;28;20380;-76
2024/02/25 01:46:56;;;;;;;;;;;5.20;99.90;;;;;;2055584;28;20013;-78
2024/02/25 01:47:57;;;;;;;;;;;5.20;99.90;;;;;;2059662;28;19981;-78
2024/02/25 01:48:57;;;;;;;;;;;5.20;99.90;;;;;;2056017;28;19909;-79
2024/02/25 01:49:58;;;;;;;;;;;5.20;99.90;;;;;;2060298;28;19916;-79
2024/02/25 01:50:58;;;;;;;;;;;5.20;99.90;;;;;;2059718;28;19964;-78
2024/02/25 01:51:59;;;;;;;;;;;5.20;99.90;;;;;;2060053;28;20366;-79
2024/02/25 01:53:01;;;;;;;;;;;5.20;99.90;;;;;;2055946;28;20321;-79
2024/02/25 01:54:01;;;;;;;;;;;5.20;99.90;;;;;;2060451;28;20395;-79
2024/02/25 01:55:02;;;;;;;;;;;5.20;99.90;;;;;;2061531;28;20000;-79
2024/02/25 01:56:03;;;;;;;;;;;5.20;99.90;;;;;;2055256;28;19910;-79
2024/02/25 01:57:03;;;;;;;;;;;5.20;99.90;;;;;;2057540;28;19936;-79
2024/02/25 01:58:05;;;;;;;;;;;5.20;99.90;;;;;;2060815;28;19909;-79
2024/02/25 01:59:06;;;;;;;;;;;5.20;99.90;;;;;;2059300;28;20392;-78
2024/02/25 02:00:06;;;;;;;;;;;5.20;99.90;;;;;;2062032;28;19913;-78
2024/02/25 02:01:09;;;;;;;;;;;5.20;99.90;;;;;;2062099;28;20379;-78
2024/02/25 02:02:13;;;;;;;;;;;5.10;99.90;;;;;;2060200;28;19964;-79
2024/02/25 02:03:13;;;;;;;;;;;5.10;99.90;;;;;;2060166;28;20328;-79
2024/02/25 02:04:14;;;;;;;;;;;5.10;99.90;;;;;;2061852;28;19948;-78
2024/02/25 02:05:14;;;;;;;;;;;5.10;99.90;;;;;;2055513;28;19910;-78
2024/02/25 02:06:15;;;;;;;;;;;5.10;99.90;;;;;;2060415;28;20783;-78
2024/02/25 02:07:16;;;;;;;;;;;5.10;99.90;;;;;;2060919;28;20009;-78
2024/02/25 02:08:17;;;;;;;;;;;5.10;99.90;;;;;;2061524;28;19984;-78
2024/02/25 02:09:17;;;;;;;;;;;5.10;99.90;;;;;;2061918;28;19910;-78
2024/02/25 02:10:18;;;;;;;;;;;5.10;99.90;;;;;;2061705;28;20000;-78
2024/02/25 02:11:19;;;;;;;;;;;5.10;99.90;;;;;;2061991;28;20295;-78
2024/02/25 02:12:20;;;;;;;;;;;5.10;99.90;;;;;;2057907;28;19918;-79
2024/02/25 02:13:21;;;;;;;;;;;5.10;99.90;;;;;;2062054;28;19909;-79
2024/02/25 02:14:21;;;;;;;;;;;5.00;99.90;;;;;;2061879;28;19914;-78
2024/02/25 02:15:22;;;;;;;;;;;5.10;99.90;;;;;;2061426;28;19910;-78
2024/02/25 02:16:24;;;;;;;;;;;5.10;99.90;;;;;;2061873;28;19910;-79
2024/02/25 02:17:25;;;;;;;;;;;5.10;99.90;;;;;;2056548;28;19917;-79
2024/02/25 02:18:25;;;;;;;;;;;5.10;99.90;;;;;;2049538;28;20301;-76
2024/02/25 02:19:26;;;;;;;;;;;5.10;99.90;;;;;;2057802;28;19910;-78
2024/02/25 02:20:28;;;;;;;;;;;5.10;99.90;;;;;;2061962;28;20383;-78
2024/02/25 02:21:28;;;;;;;;;;;5.20;99.90;;;;;;2059176;28;19916;-78
2024/02/25 02:22:29;;;;;;;;;;;5.20;99.90;;;;;;2061525;28;19909;-78
2024/02/25 02:23:31;;;;;;;;;;;5.20;99.90;;;;;;2062369;28;19940;-79
2024/02/25 02:24:32;;;;;;;;;;;5.20;99.90;;;;;;2054064;28;20009;-77
2024/02/25 02:25:32;;;;;;;;;;;5.20;99.90;;;;;;2058335;28;19925;-77
2024/02/25 02:26:33;;;;;;;;;;;5.20;99.90;;;;;;2062029;28;19910;-78
2024/02/25 02:27:37;;;;;;;;;;;5.20;99.90;;;;;;2061355;28;19914;-79
2024/02/25 02:28:38;;;;;;;;;;;5.20;99.90;;;;;;2058369;28;19914;-79
2024/02/25 02:29:38;;;;;;;;;;;5.20;99.90;;;;;;2056175;28;20558;-79
2024/02/25 02:30:39;;;;;;;;;;;5.20;99.90;;;;;;2061034;28;19910;-79
2024/02/25 02:31:39;;;;;;;;;;;5.20;99.90;;;;;;2059755;28;19918;-79
2024/02/25 02:32:40;;;;;;;;;;;5.20;99.90;;;;;;2061201;28;20319;-81
2024/02/25 02:33:41;;;;;;;;;;;5.20;99.90;;;;;;2060845;28;19964;-77
2024/02/25 02:34:42;;;;;;;;;;;5.20;99.90;;;;;;2059922;28;19920;-81
2024/02/25 02:35:42;;;;;;;;;;;5.20;99.90;;;;;;2057446;28;19917;-80
2024/02/25 02:36:43;;;;;;;;;;;5.20;99.90;;;;;;2061900;28;19913;-78
2024/02/25 02:37:43;;;;;;;;;;;5.20;99.90;;;;;;2059738;28;19913;-77
2024/02/25 02:38:44;;;;;;;;;;;5.30;99.90;;;;;;2055006;28;19917;-80
2024/02/25 02:39:44;;;;;;;;;;;5.30;99.90;;;;;;2061668;28;20380;-78
2024/02/25 02:40:45;;;;;;;;;;;5.30;99.90;;;;;;2057337;28;19949;-79
2024/02/25 02:41:45;;;;;;;;;;;5.30;99.90;;;;;;2061989;28;20507;-78
2024/02/25 02:42:47;;;;;;;;;;;5.30;99.90;;;;;;2060624;28;19914;-79
2024/02/25 02:43:47;;;;;;;;;;;5.30;99.90;;;;;;2060456;28;19913;-79
2024/02/25 02:44:50;;;;;;;;;;;5.30;99.90;;;;;;2055981;28;19921;-79
2024/02/25 02:45:55;;;;;;;;;;;5.30;99.90;;;;;;2057121;28;19909;-79
2024/02/25 02:46:56;;;;;;;;;;;5.30;99.90;;;;;;2055608;28;20485;-78
2024/02/25 02:47:56;;;;;;;;;;;5.30;99.90;;;;;;2061465;28;20008;-77
2024/02/25 02:48:57;;;;;;;;;;;5.40;99.90;;;;;;2058501;28;20435;-78
2024/02/25 02:49:57;;;;;;;;;;;5.30;99.90;;;;;;2060111;28;19914;-78
2024/02/25 02:50:58;;;;;;;;;;;5.30;99.90;;;;;;2061498;28;19918;-78
2024/02/25 02:51:59;;;;;;;;;;;5.30;99.90;;;;;;2061152;28;19910;-79
2024/02/25 02:52:59;;;;;;;;;;;5.30;99.90;;;;;;2058481;28;19910;-81
2024/02/25 02:54:02;;;;;;;;;;;5.40;99.90;;;;;;2056612;28;20239;-78
2024/02/25 02:55:03;;;;;;;;;;;5.40;99.90;;;;;;2062156;28;19917;-81
2024/02/25 02:56:03;;;;;;;;;;;5.40;99.90;;;;;;2061446;28;19957;-78
2024/02/25 02:57:04;;;;;;;;;;;5.40;99.90;;;;;;2061284;28;19959;-78
2024/02/25 02:58:04;;;;;;;;;;;5.40;99.90;;;;;;2061572;28;19969;-78
2024/02/25 02:59:05;;;;;;;;;;;5.30;99.90;;;;;;2055677;28;19985;-79
2024/02/25 03:00:06;;;;;;;;;;;5.30;99.90;;;;;;2049802;28;20728;-79
2024/02/25 03:01:06;;;;;;;;;;;5.30;99.90;;;;;;2061540;28;19922;-80
2024/02/25 03:02:07;;;;;;;;;;;5.30;99.90;;;;;;2061871;28;19937;-79
2024/02/25 03:03:07;;;;;;;;;;;5.20;99.90;;;;;;2057459;28;19921;-79
2024/02/25 03:04:08;;;;;;;;;;;5.20;99.90;;;;;;2060848;28;19909;-79
2024/02/25 03:05:08;;;;;;;;;;;5.20;99.90;;;;;;2061095;28;19911;-79
2024/02/25 03:06:09;;;;;;;;;;;5.20;99.90;;;;;;2061235;28;20244;-78
2024/02/25 03:07:09;;;;;;;;;;;5.20;99.90;;;;;;2057297;28;19909;-79
2024/02/25 03:08:10;;;;;;;;;;;5.20;99.90;;;;;;2061257;28;19917;-79
2024/02/25 03:09:12;;;;;;;;;;;5.20;99.90;;;;;;2057543;28;20056;-74
2024/02/25 03:10:13;;;;;;;;;;;5.20;99.90;;;;;;2059672;28;19997;-77
2024/02/25 03:11:14;;;;;;;;;;;5.20;99.90;;;;;;2058184;28;20149;-79
2024/02/25 03:12:14;;;;;;;;;;;5.20;99.90;;;;;;2060818;28;19960;-79
2024/02/25 03:13:15;;;;;;;;;;;5.20;99.90;;;;;;2060558;28;20442;-71
2024/02/25 03:14:15;;;;;;;;;;;5.30;99.90;;;;;;2056830;28;19957;-79
2024/02/25 03:15:16;;;;;;;;;;;5.30;99.90;;;;;;2057471;28;19960;-72
2024/02/25 03:16:16;;;;;;;;;;;5.30;99.90;;;;;;2060686;28;19917;-79
2024/02/25 03:17:19;;;;;;;;;;;5.30;99.90;;;;;;2059666;28;19920;-78
2024/02/25 03:18:20;;;;;;;;;;;5.30;99.90;;;;;;2061287;28;20304;-78
2024/02/25 03:19:20;;;;;;;;;;;5.30;99.90;;;;;;2060619;28;19909;-79
2024/02/25 03:20:21;;;;;;;;;;;5.30;99.90;;;;;;2057108;28;19913;-77
2024/02/25 03:21:21;;;;;;;;;;;5.30;99.90;;;;;;2060775;28;19991;-77
2024/02/25 03:22:22;;;;;;;;;;;5.40;99.90;;;;;;2061434;28;20260;-78
2024/02/25 03:23:22;;;;;;;;;;;5.40;99.90;;;;;;2061772;28;20415;-78
2024/02/25 03:24:23;;;;;;;;;;;5.40;99.90;;;;;;2060603;28;19987;-77
2024/02/25 03:25:23;;;;;;;;;;;5.40;99.90;;;;;;2060371;28;19953;-78
2024/02/25 03:26:24;;;;;;;;;;;5.40;99.90;;;;;;2061036;28;19910;-78
2024/02/25 03:27:24;;;;;;;;;;;5.40;99.90;;;;;;2060685;28;20383;-78
2024/02/25 03:28:25;;;;;;;;;;;5.40;99.90;;;;;;2059439;28;19909;-78
2024/02/25 03:29:26;;;;;;;;;;;5.40;99.90;;;;;;2057434;28;19913;-78
2024/02/25 03:30:26;;;;;;;;;;;5.40;99.90;;;;;;2059287;28;19910;-79
2024/02/25 03:31:26;;;;;;;;;;;5.40;99.90;;;;;;2058391;28;19928;-78
2024/02/25 03:32:27;;;;;;;;;;;5.40;99.90;;;;;;2061029;28;20299;-78
2024/02/25 03:33:27;;;;;;;;;;;5.40;99.90;;;;;;2061161;28;19913;-77
2024/02/25 03:34:28;;;;;;;;;;;5.40;99.90;;;;;;2060894;28;19910;-79
2024/02/25 03:35:32;;;;;;;;;;;5.40;99.90;;;;;;2060835;28;19971;-79
2024/02/25 03:36:32;;;;;;;;;;;5.40;99.90;;;;;;2060914;28;19965;-79
2024/02/25 03:37:32;;;;;;;;;;;5.40;99.90;;;;;;2059828;28;20412;-78
2024/02/25 03:38:33;;;;;;;;;;;5.40;99.90;;;;;;2056901;28;19945;-78
2024/02/25 03:39:33;;;;;;;;;;;5.40;99.90;;;;;;2058893;28;19999;-78
2024/02/25 03:40:34;;;;;;;;;;;5.40;99.90;;;;;;2061269;28;19914;-79
2024/02/25 03:41:34;;;;;;;;;;;5.40;99.90;;;;;;2059766;28;19910;-79
2024/02/25 03:42:35;;;;;;;;;;;5.40;99.90;;;;;;2056709;28;19988;-79
2024/02/25 03:43:35;;;;;;;;;;;5.40;99.90;;;;;;2061231;28;19910;-79
2024/02/25 03:44:36;;;;;;;;;;;5.40;99.90;;;;;;2061163;28;19913;-79
2024/02/25 03:45:36;;;;;;;;;;;5.40;99.90;;;;;;2061052;28;19940;-79
2024/02/25 03:46:37;;;;;;;;;;;5.30;99.90;;;;;;2061324;28;19913;-79
2024/02/25 03:47:37;;;;;;;;;;;5.40;99.90;;;;;;2058832;28;19964;-79
2024/02/25 03:48:38;;;;;;;;;;;5.30;99.90;;;;;;2055895;28;19950;-78
2024/02/25 03:49:41;;;;;;;;;;;5.30;99.90;;;;;;2061191;28;19909;-78
2024/02/25 03:50:42;;;;;;;;;;;5.30;99.90;;;;;;2059724;28;19972;-78
2024/02/25 03:51:43;;;;;;;;;;;5.30;99.90;;;;;;2060663;28;20090;-78
2024/02/25 03:52:43;;;;;;;;;;;5.30;99.90;;;;;;2056854;28;19910;-79
2024/02/25 03:53:44;;;;;;;;;;;5.30;99.90;;;;;;2047476;28;20261;-78
2024/02/25 03:54:45;;;;;;;;;;;5.30;99.90;;;;;;2052007;28;19910;-79
2024/02/25 03:55:46;;;;;;;;;;;5.30;99.90;;;;;;2060302;28;20615;-79
2024/02/25 03:56:46;;;;;;;;;;;5.30;99.90;;;;;;2060768;28;19913;-79
2024/02/25 03:57:47;;;;;;;;;;;5.30;99.90;;;;;;2059529;28;19914;-79
2024/02/25 03:58:47;;;;;;;;;;;5.30;99.90;;;;;;2057231;28;19913;-78
2024/02/25 03:59:48;;;;;;;;;;;5.30;99.90;;;;;;2060497;28;19914;-78
2024/02/25 04:00:48;;;;;;;;;;;5.30;99.90;;;;;;2060675;28;19925;-79
2024/02/25 04:01:50;;;;;;;;;;;5.20;99.90;;;;;;2060921;28;19940;-78
2024/02/25 04:02:50;;;;;;;;;;;5.20;99.90;;;;;;2052226;28;19936;-78
2024/02/25 04:03:51;;;;;;;;;;;5.20;99.90;;;;;;2056140;28;19941;-79
2024/02/25 04:04:51;;;;;;;;;;;5.30;99.90;;;;;;2060368;28;20192;-79
2024/02/25 04:05:52;;;;;;;;;;;5.20;99.90;;;;;;2061085;28;19910;-79
2024/02/25 04:06:52;;;;;;;;;;;5.30;99.90;;;;;;2060439;28;19956;-78
2024/02/25 04:07:53;;;;;;;;;;;5.30;99.90;;;;;;2056293;28;20315;-77
2024/02/25 04:08:53;;;;;;;;;;;5.30;99.90;;;;;;2060270;28;20010;-78
2024/02/25 04:09:54;;;;;;;;;;;5.30;99.90;;;;;;2059957;28;19964;-79
2024/02/25 04:10:54;;;;;;;;;;;5.30;99.90;;;;;;2059843;28;19918;-79
2024/02/25 04:11:55;;;;;;;;;;;5.20;99.90;;;;;;2056574;28;19909;-79
2024/02/25 04:12:55;;;;;;;;;;;5.20;99.90;;;;;;2061938;28;19918;-78
2024/02/25 04:13:56;;;;;;;;;;;5.20;99.90;;;;;;2060574;28;20008;-79
2024/02/25 04:14:57;;;;;;;;;;;5.20;99.90;;;;;;2056896;28;19925;-79
2024/02/25 04:15:57;;;;;;;;;;;5.20;99.90;;;;;;2056723;28;20229;-79
2024/02/25 04:16:57;;;;;;;;;;;5.20;99.90;;;;;;2059225;28;19913;-79
2024/02/25 04:17:58;;;;;;;;;;;5.20;99.90;;;;;;2060567;28;20011;-79
2024/02/25 04:18:58;;;;;;;;;;;5.20;99.90;;;;;;2060737;28;19909;-78
2024/02/25 04:19:59;;;;;;;;;;;5.20;99.90;;;;;;2056555;28;20356;-79
2024/02/25 04:21:00;;;;;;;;;;;5.20;99.90;;;;;;2056827;28;20001;-79
2024/02/25 04:22:02;;;;;;;;;;;5.20;99.90;;;;;;2056752;28;19920;-78
2024/02/25 04:23:03;;;;;;;;;;;5.20;99.90;;;;;;2060383;28;20020;-79
2024/02/25 04:24:03;;;;;;;;;;;5.20;99.90;;;;;;2052133;28;19914;-79
2024/02/25 04:25:04;;;;;;;;;;;5.20;99.90;;;;;;2052597;28;19914;-79
2024/02/25 04:26:04;;;;;;;;;;;5.20;99.90;;;;;;2059802;28;19956;-79
2024/02/25 04:27:05;;;;;;;;;;;5.10;99.90;;;;;;2057019;28;19996;-79
2024/02/25 04:28:05;;;;;;;;;;;5.10;99.90;;;;;;2063143;28;20418;-81
2024/02/25 04:29:06;;;;;;;;;;;5.10;99.90;;;;;;2061644;28;19953;-81
2024/02/25 04:30:06;;;;;;;;;;;5.10;99.90;;;;;;2061581;28;19961;-81
2024/02/25 04:31:07;;;;;;;;;;;5.10;99.90;;;;;;2056941;28;20356;-80
2024/02/25 04:32:07;;;;;;;;;;;5.10;99.90;;;;;;2061508;28;19913;-80
2024/02/25 04:33:08;;;;;;;;;;;5.10;99.90;;;;;;2058175;28;19945;-80
2024/02/25 04:34:09;;;;;;;;;;;5.10;99.90;;;;;;2060844;28;19953;-80
2024/02/25 04:35:09;;;;;;;;;;;5.10;99.90;;;;;;2058172;28;20024;-79
2024/02/25 04:36:16;;;;;;;;;;;5.10;99.90;;;;;;2061024;28;19917;-80
2024/02/25 04:37:16;;;;;;;;;;;5.10;99.90;;;;;;2060882;28;19913;-79
2024/02/25 04:38:17;;;;;;;;;;;5.00;99.90;;;;;;2054860;28;19910;-80
2024/02/25 04:39:17;;;;;;;;;;;5.00;99.90;;;;;;2058891;28;19957;-81
2024/02/25 04:40:18;;;;;;;;;;;5.00;99.90;;;;;;2061897;28;20347;-80
2024/02/25 04:41:18;;;;;;;;;;;5.00;99.90;;;;;;2057716;28;20353;-81
2024/02/25 04:42:19;;;;;;;;;;;5.00;99.90;;;;;;2061116;28;20066;-80
2024/02/25 04:43:19;;;;;;;;;;;5.00;99.90;;;;;;2061685;28;19941;-81
2024/02/25 04:44:20;;;;;;;;;;;5.00;99.90;;;;;;2061519;28;19918;-82
2024/02/25 04:45:20;;;;;;;;;;;4.90;99.90;;;;;;2057583;28;19918;-80
2024/02/25 04:46:20;;;;;;;;;;;4.90;99.90;;;;;;2061478;28;19923;-82
2024/02/25 04:47:21;;;;;;;;;;;4.90;99.90;;;;;;2057361;28;19995;-79
2024/02/25 04:48:21;;;;;;;;;;;4.90;99.90;;;;;;2061454;28;20391;-79
2024/02/25 04:49:22;;;;;;;;;;;4.90;99.90;;;;;;2061635;28;19964;-80
2024/02/25 04:50:22;;;;;;;;;;;4.80;99.90;;;;;;2058905;28;20164;-79
2024/02/25 04:51:23;;;;;;;;;;;4.80;99.90;;;;;;2057473;28;19926;-82
2024/02/25 04:52:23;;;;;;;;;;;4.80;99.90;;;;;;2059439;28;19975;-80
2024/02/25 04:53:25;;;;;;;;;;;4.80;99.90;;;;;;2061723;28;20376;-81
2024/02/25 04:54:25;;;;;;;;;;;4.90;99.90;;;;;;2058054;28;20410;-79
2024/02/25 04:55:26;;;;;;;;;;;4.80;99.90;;;;;;2061731;28;20304;-81
2024/02/25 04:56:27;;;;;;;;;;;4.80;99.90;;;;;;2061286;28;20052;-81
2024/02/25 04:57:28;;;;;;;;;;;4.80;99.90;;;;;;2058111;28;19922;-78
2024/02/25 04:58:28;;;;;;;;;;;4.80;99.90;;;;;;2055113;28;19910;-79
2024/02/25 04:59:29;;;;;;;;;;;4.80;99.90;;;;;;2065151;28;19972;-80
2024/02/25 05:00:29;;;;;;;;;;;4.80;99.90;;;;;;2061847;28;19944;-81
2024/02/25 05:01:30;;;;;;;;;;;4.80;99.90;;;;;;2062293;28;19941;-79
2024/02/25 05:02:30;;;;;;;;;;;4.80;99.90;;;;;;2056316;28;19914;-80
2024/02/25 05:03:32;;;;;;;;;;;4.80;99.90;;;;;;2062259;28;19914;-79
2024/02/25 05:04:35;;;;;;;;;;;4.80;99.90;;;;;;2061804;28;19968;-81
2024/02/25 05:05:35;;;;;;;;;;;4.80;99.90;;;;;;2061060;28;19910;-80
2024/02/25 05:06:36;;;;;;;;;;;4.80;99.90;;;;;;2062005;28;20377;-78
2024/02/25 05:07:36;;;;;;;;;;;4.80;99.90;;;;;;2060317;28;20249;-77
2024/02/25 05:08:37;;;;;;;;;;;4.80;99.90;;;;;;2056552;28;19992;-80
2024/02/25 05:09:38;;;;;;;;;;;4.80;99.90;;;;;;2061396;28;20399;-77
2024/02/25 05:10:39;;;;;;;;;;;4.80;99.90;;;;;;2057290;28;19952;-83
2024/02/25 05:11:39;;;;;;;;;;;4.80;99.90;;;;;;2061544;28;19940;-81
2024/02/25 05:12:40;;;;;;;;;;;4.80;99.90;;;;;;2057082;28;19925;-82
2024/02/25 05:13:43;;;;;;;;;;;4.80;99.90;;;;;;2060553;28;19910;-81
2024/02/25 05:14:44;;;;;;;;;;;4.80;99.90;;;;;;2056925;28;20384;-81
2024/02/25 05:15:44;;;;;;;;;;;4.80;99.90;;;;;;2058476;28;19910;-82
2024/02/25 05:16:45;;;;;;;;;;;4.80;99.90;;;;;;2060940;28;20489;-82
2024/02/25 05:17:45;;;;;;;;;;;4.70;99.90;;;;;;2058279;28;19912;-81
2024/02/25 05:18:46;;;;;;;;;;;4.70;99.90;;;;;;2060849;28;19921;-83
2024/02/25 05:19:47;;;;;;;;;;;4.70;99.90;;;;;;2057590;28;19917;-82
2024/02/25 05:20:47;;;;;;;;;;;4.70;99.90;;;;;;2059279;28;19956;-82
2024/02/25 05:21:48;;;;;;;;;;;4.70;99.90;;;;;;2057585;28;19920;-81
2024/02/25 05:22:49;;;;;;;;;;;4.70;99.90;;;;;;2058473;28;20407;-82
2024/02/25 05:23:49;;;;;;;;;;;4.70;99.90;;;;;;2058938;28;20168;-82
2024/02/25 05:24:49;;;;;;;;;;;4.70;99.90;;;;;;2055273;28;19933;-81
2024/02/25 05:25:50;;;;;;;;;;;4.70;99.90;;;;;;2058892;28;19909;-79
2024/02/25 05:26:50;;;;;;;;;;;4.70;99.90;;;;;;2059766;28;19909;-80
2024/02/25 05:27:51;;;;;;;;;;;4.70;99.90;;;;;;2061252;28;19913;-80
2024/02/25 05:28:51;;;;;;;;;;;4.70;99.90;;;;;;2062194;28;19913;-80
2024/02/25 05:29:55;;;;;;;;;;;4.70;99.90;;;;;;2060603;28;19998;-81
2024/02/25 05:30:56;;;;;;;;;;;4.70;99.90;;;;;;2058776;28;20278;-69
2024/02/25 05:31:56;;;;;;;;;;;4.70;99.90;;;;;;2057370;28;19933;-68
2024/02/25 05:32:57;;;;;;;;;;;4.70;99.90;;;;;;2059230;28;19945;-67
2024/02/25 05:33:57;;;;;;;;;;;4.70;99.90;;;;;;2052769;28;20365;-68
2024/02/25 05:34:58;;;;;;;;;;;4.70;99.90;;;;;;2050761;28;19964;-68
2024/02/25 05:35:58;;;;;;;;;;;4.70;99.90;;;;;;2052705;28;19996;-68
2024/02/25 05:36:58;;;;;;;;;;;4.60;99.90;;;;;;2051722;28;19924;-68
2024/02/25 05:37:59;;;;;;;;;;;4.60;99.90;;;;;;2058728;28;20489;-68
2024/02/25 05:38:59;;;;;;;;;;;4.60;99.90;;;;;;2058534;28;20689;-67
2024/02/25 05:40:00;;;;;;;;;;;4.60;99.90;;;;;;2058885;28;19953;-77
2024/02/25 05:41:02;;;;;;;;;;;4.60;99.90;;;;;;2059757;28;19909;-76
2024/02/25 05:42:03;;;;;;;;;;;4.60;99.90;;;;;;2059824;28;20447;-79
2024/02/25 05:43:03;;;;;;;;;;;4.70;99.90;;;;;;2059839;28;20176;-77
2024/02/25 05:44:04;;;;;;;;;;;4.70;99.90;;;;;;2055957;28;20424;-78
2024/02/25 05:45:05;;;;;;;;;;;4.60;99.90;;;;;;2056069;28;19910;-78
2024/02/25 05:46:05;;;;;;;;;;;4.60;99.90;;;;;;2059808;28;19918;-77
2024/02/25 05:47:06;;;;;;;;;;;4.60;99.90;;;;;;2056159;28;19926;-77
2024/02/25 05:48:07;;;;;;;;;;;4.60;99.90;;;;;;2059872;28;19913;-78
2024/02/25 05:49:07;;;;;;;;;;;4.60;99.90;;;;;;2060238;28;19993;-76
2024/02/25 05:50:08;;;;;;;;;;;4.60;99.90;;;;;;2059931;28;20642;-77
2024/02/25 05:51:09;;;;;;;;;;;4.60;99.90;;;;;;2055811;28;20004;-77
2024/02/25 05:52:09;;;;;;;;;;;4.60;99.90;;;;;;2059706;28;19960;-78
2024/02/25 05:53:10;;;;;;;;;;;4.60;99.90;;;;;;2059948;28;19910;-78
2024/02/25 05:54:10;;;;;;;;;;;4.60;99.90;;;;;;2059441;28;19910;-77
2024/02/25 05:55:11;;;;;;;;;;;4.60;99.90;;;;;;2055801;28;19914;-78
2024/02/25 05:56:11;;;;;;;;;;;4.60;99.90;;;;;;2059485;28;19921;-79
2024/02/25 05:57:12;;;;;;;;;;;4.60;99.90;;;;;;2056854;28;19994;-77
2024/02/25 05:58:13;;;;;;;;;;;4.60;99.90;;;;;;2060198;28;19910;-78
2024/02/25 05:59:13;;;;;;;;;;;4.60;99.90;;;;;;2060090;28;20464;-78